sensor_id;sensor_type;location;lat;lon;timestamp;temperature;humidity
31038;DHT22;17702;47.590;7.666;2022-08-14T00:02:25;22.00;51.20
31038;DHT22;17702;47.590;7.666;2022-08-14T00:04:51;22.00;50.30
31038;DHT22;17702;47.590;7.666;2022-08-14T00:07:17;22.00;49.70
31038;DHT22;17702;47.590;7.666;2022-08-14T00:09:43;22.00;50.50
31038;DHT22;17702;47.590;7.666;2022-08-14T00:12:09;22.00;49.30
31038;DHT22;17702;47.590;7.666;2022-08-14T00:14:36;22.00;50.00
31038;DHT22;17702;47.590;7.666;2022-08-14T00:17:03;22.10;49.60
31038;DHT22;17702;47.590;7.666;2022-08-14T00:19:29;22.10;48.30
31038;DHT22;17702;47.590;7.666;2022-08-14T00:21:54;22.00;49.90
31038;DHT22;17702;47.590;7.666;2022-08-14T00:24:21;22.10;49.60
31038;DHT22;17702;47.590;7.666;2022-08-14T00:26:47;22.10;48.90
31038;DHT22;17702;47.590;7.666;2022-08-14T00:29:13;22.10;49.20
31038;DHT22;17702;47.590;7.666;2022-08-14T00:31:39;22.10;48.70
31038;DHT22;17702;47.590;7.666;2022-08-14T00:34:04;22.10;48.70
31038;DHT22;17702;47.590;7.666;2022-08-14T00:36:30;22.10;48.80
31038;DHT22;17702;47.590;7.666;2022-08-14T00:38:56;22.10;49.00
31038;DHT22;17702;47.590;7.666;2022-08-14T00:41:22;22.10;49.00
31038;DHT22;17702;47.590;7.666;2022-08-14T00:43:47;22.00;49.30
31038;DHT22;17702;47.590;7.666;2022-08-14T00:46:13;22.00;48.90
31038;DHT22;17702;47.590;7.666;2022-08-14T00:48:39;21.90;49.10
31038;DHT22;17702;47.590;7.666;2022-08-14T00:51:08;22.00;48.70
31038;DHT22;17702;47.590;7.666;2022-08-14T00:53:35;21.90;48.60
31038;DHT22;17702;47.590;7.666;2022-08-14T00:56:03;21.90;50.10
31038;DHT22;17702;47.590;7.666;2022-08-14T00:58:28;21.90;49.90
31038;DHT22;17702;47.590;7.666;2022-08-14T01:01:05;21.90;48.70
31038;DHT22;17702;47.590;7.666;2022-08-14T01:03:34;21.80;49.00
31038;DHT22;17702;47.590;7.666;2022-08-14T01:06:03;21.80;48.20
31038;DHT22;17702;47.590;7.666;2022-08-14T01:08:30;21.70;49.90
31038;DHT22;17702;47.590;7.666;2022-08-14T01:10:57;21.80;49.30
31038;DHT22;17702;47.590;7.666;2022-08-14T01:13:31;21.70;49.00
31038;DHT22;17702;47.590;7.666;2022-08-14T01:15:59;21.80;48.30
31038;DHT22;17702;47.590;7.666;2022-08-14T01:18:26;21.80;48.30
31038;DHT22;17702;47.590;7.666;2022-08-14T01:21:11;21.80;49.60
31038;DHT22;17702;47.590;7.666;2022-08-14T01:23:49;21.80;48.50
31038;DHT22;17702;47.590;7.666;2022-08-14T01:26:16;21.70;48.50
31038;DHT22;17702;47.590;7.666;2022-08-14T01:28:46;21.70;49.10
31038;DHT22;17702;47.590;7.666;2022-08-14T01:31:15;21.70;48.80
31038;DHT22;17702;47.590;7.666;2022-08-14T01:33:42;21.80;48.50
31038;DHT22;17702;47.590;7.666;2022-08-14T01:36:11;21.80;47.80
31038;DHT22;17702;47.590;7.666;2022-08-14T01:38:39;21.70;48.50
31038;DHT22;17702;47.590;7.666;2022-08-14T01:41:13;21.70;48.50
31038;DHT22;17702;47.590;7.666;2022-08-14T01:44:06;21.60;48.70
31038;DHT22;17702;47.590;7.666;2022-08-14T01:46:37;21.70;48.30
31038;DHT22;17702;47.590;7.666;2022-08-14T01:49:07;21.60;48.50
31038;DHT22;17702;47.590;7.666;2022-08-14T01:51:35;21.50;48.20
31038;DHT22;17702;47.590;7.666;2022-08-14T01:54:06;21.60;48.80
31038;DHT22;17702;47.590;7.666;2022-08-14T01:56:34;21.60;49.00
31038;DHT22;17702;47.590;7.666;2022-08-14T01:59:04;21.60;48.80
31038;DHT22;17702;47.590;7.666;2022-08-14T02:01:30;21.60;49.30
31038;DHT22;17702;47.590;7.666;2022-08-14T02:03:56;21.50;48.70
31038;DHT22;17702;47.590;7.666;2022-08-14T02:06:22;21.50;48.40
31038;DHT22;17702;47.590;7.666;2022-08-14T02:08:48;21.40;49.20
31038;DHT22;17702;47.590;7.666;2022-08-14T02:11:14;21.50;48.50
31038;DHT22;17702;47.590;7.666;2022-08-14T02:13:49;21.50;48.60
31038;DHT22;17702;47.590;7.666;2022-08-14T02:16:17;21.40;49.00
31038;DHT22;17702;47.590;7.666;2022-08-14T02:18:43;21.40;49.00
31038;DHT22;17702;47.590;7.666;2022-08-14T02:21:11;21.40;48.90
31038;DHT22;17702;47.590;7.666;2022-08-14T02:23:39;21.40;49.20
31038;DHT22;17702;47.590;7.666;2022-08-14T02:26:18;21.30;49.40
31038;DHT22;17702;47.590;7.666;2022-08-14T02:28:45;21.30;49.90
31038;DHT22;17702;47.590;7.666;2022-08-14T02:31:12;21.30;49.20
31038;DHT22;17702;47.590;7.666;2022-08-14T02:33:38;21.20;49.70
31038;DHT22;17702;47.590;7.666;2022-08-14T02:36:07;21.20;49.20
31038;DHT22;17702;47.590;7.666;2022-08-14T02:38:33;21.20;48.90
31038;DHT22;17702;47.590;7.666;2022-08-14T02:40:59;21.20;48.90
31038;DHT22;17702;47.590;7.666;2022-08-14T02:43:25;21.20;48.90
31038;DHT22;17702;47.590;7.666;2022-08-14T02:45:54;21.10;48.80
31038;DHT22;17702;47.590;7.666;2022-08-14T02:48:20;21.10;49.10
31038;DHT22;17702;47.590;7.666;2022-08-14T02:50:46;21.10;49.40
31038;DHT22;17702;47.590;7.666;2022-08-14T02:53:11;21.10;48.80
31038;DHT22;17702;47.590;7.666;2022-08-14T02:55:37;21.10;49.30
31038;DHT22;17702;47.590;7.666;2022-08-14T02:58:05;21.00;50.10
31038;DHT22;17702;47.590;7.666;2022-08-14T03:00:33;21.00;49.00
31038;DHT22;17702;47.590;7.666;2022-08-14T03:03:03;20.90;50.40
31038;DHT22;17702;47.590;7.666;2022-08-14T03:05:28;20.90;51.10
31038;DHT22;17702;47.590;7.666;2022-08-14T03:08:04;20.80;51.40
31038;DHT22;17702;47.590;7.666;2022-08-14T03:10:30;20.60;53.30
31038;DHT22;17702;47.590;7.666;2022-08-14T03:12:56;20.40;52.20
31038;DHT22;17702;47.590;7.666;2022-08-14T03:15:23;20.30;52.70
31038;DHT22;17702;47.590;7.666;2022-08-14T03:17:49;20.10;53.60
31038;DHT22;17702;47.590;7.666;2022-08-14T03:20:17;19.90;55.30
31038;DHT22;17702;47.590;7.666;2022-08-14T03:22:43;19.80;54.60
31038;DHT22;17702;47.590;7.666;2022-08-14T03:25:08;19.80;56.40
31038;DHT22;17702;47.590;7.666;2022-08-14T03:27:37;19.80;56.20
31038;DHT22;17702;47.590;7.666;2022-08-14T03:30:03;19.60;56.80
31038;DHT22;17702;47.590;7.666;2022-08-14T03:32:29;19.60;56.80
31038;DHT22;17702;47.590;7.666;2022-08-14T03:34:58;19.50;58.20
31038;DHT22;17702;47.590;7.666;2022-08-14T03:37:23;19.40;57.30
31038;DHT22;17702;47.590;7.666;2022-08-14T03:39:52;19.30;56.90
31038;DHT22;17702;47.590;7.666;2022-08-14T03:42:17;19.10;58.70
31038;DHT22;17702;47.590;7.666;2022-08-14T03:44:43;19.00;59.10
31038;DHT22;17702;47.590;7.666;2022-08-14T03:47:09;19.00;58.50
31038;DHT22;17702;47.590;7.666;2022-08-14T03:49:36;18.90;58.60
31038;DHT22;17702;47.590;7.666;2022-08-14T03:52:02;18.90;58.30
31038;DHT22;17702;47.590;7.666;2022-08-14T03:54:29;18.80;58.00
31038;DHT22;17702;47.590;7.666;2022-08-14T03:56:55;18.70;59.10
31038;DHT22;17702;47.590;7.666;2022-08-14T03:59:25;18.60;59.20
31038;DHT22;17702;47.590;7.666;2022-08-14T04:01:50;18.70;58.50
31038;DHT22;17702;47.590;7.666;2022-08-14T04:04:17;18.60;59.30
31038;DHT22;17702;47.590;7.666;2022-08-14T04:06:43;18.50;60.80
31038;DHT22;17702;47.590;7.666;2022-08-14T04:09:09;18.50;61.00
31038;DHT22;17702;47.590;7.666;2022-08-14T04:11:35;18.30;60.50
31038;DHT22;17702;47.590;7.666;2022-08-14T04:14:03;18.20;60.60
31038;DHT22;17702;47.590;7.666;2022-08-14T04:16:29;18.20;61.40
31038;DHT22;17702;47.590;7.666;2022-08-14T04:18:57;18.20;61.20
31038;DHT22;17702;47.590;7.666;2022-08-14T04:21:24;18.10;60.80
31038;DHT22;17702;47.590;7.666;2022-08-14T04:23:53;18.10;61.50
31038;DHT22;17702;47.590;7.666;2022-08-14T04:26:19;18.00;61.50
31038;DHT22;17702;47.590;7.666;2022-08-14T04:28:48;17.90;61.80
31038;DHT22;17702;47.590;7.666;2022-08-14T04:31:15;17.90;61.90
31038;DHT22;17702;47.590;7.666;2022-08-14T04:33:41;18.00;62.30
31038;DHT22;17702;47.590;7.666;2022-08-14T04:36:08;18.10;62.50
31038;DHT22;17702;47.590;7.666;2022-08-14T04:38:33;18.10;62.60
31038;DHT22;17702;47.590;7.666;2022-08-14T04:41:18;18.10;62.50
31038;DHT22;17702;47.590;7.666;2022-08-14T04:44:03;18.10;62.80
31038;DHT22;17702;47.590;7.666;2022-08-14T04:46:32;18.20;62.50
31038;DHT22;17702;47.590;7.666;2022-08-14T04:48:58;18.20;62.80
31038;DHT22;17702;47.590;7.666;2022-08-14T04:51:23;18.20;62.80
31038;DHT22;17702;47.590;7.666;2022-08-14T04:53:51;18.20;62.50
31038;DHT22;17702;47.590;7.666;2022-08-14T04:56:20;18.20;62.90
31038;DHT22;17702;47.590;7.666;2022-08-14T04:58:50;18.30;63.00
31038;DHT22;17702;47.590;7.666;2022-08-14T05:01:23;18.30;61.90
31038;DHT22;17702;47.590;7.666;2022-08-14T05:03:48;18.40;62.50
31038;DHT22;17702;47.590;7.666;2022-08-14T05:06:14;18.50;62.50
31038;DHT22;17702;47.590;7.666;2022-08-14T05:08:40;18.50;63.10
31038;DHT22;17702;47.590;7.666;2022-08-14T05:11:08;18.40;61.60
31038;DHT22;17702;47.590;7.666;2022-08-14T05:13:35;18.50;61.10
31038;DHT22;17702;47.590;7.666;2022-08-14T05:16:05;18.60;60.50
31038;DHT22;17702;47.590;7.666;2022-08-14T05:18:36;18.80;59.50
31038;DHT22;17702;47.590;7.666;2022-08-14T05:21:07;18.90;58.60
31038;DHT22;17702;47.590;7.666;2022-08-14T05:23:35;19.00;57.60
31038;DHT22;17702;47.590;7.666;2022-08-14T05:26:02;19.10;57.70
31038;DHT22;17702;47.590;7.666;2022-08-14T05:28:32;19.20;56.80
31038;DHT22;17702;47.590;7.666;2022-08-14T05:31:01;19.30;57.20
31038;DHT22;17702;47.590;7.666;2022-08-14T05:33:29;19.30;57.20
31038;DHT22;17702;47.590;7.666;2022-08-14T05:35:57;19.40;56.80
31038;DHT22;17702;47.590;7.666;2022-08-14T05:38:31;19.50;56.50
31038;DHT22;17702;47.590;7.666;2022-08-14T05:41:06;19.50;56.30
31038;DHT22;17702;47.590;7.666;2022-08-14T05:43:32;19.60;56.00
31038;DHT22;17702;47.590;7.666;2022-08-14T05:45:59;19.70;56.00
31038;DHT22;17702;47.590;7.666;2022-08-14T05:48:25;19.70;56.70
31038;DHT22;17702;47.590;7.666;2022-08-14T05:50:52;19.70;56.20
31038;DHT22;17702;47.590;7.666;2022-08-14T05:53:26;19.80;56.30
31038;DHT22;17702;47.590;7.666;2022-08-14T05:55:52;19.80;56.20
31038;DHT22;17702;47.590;7.666;2022-08-14T05:58:20;20.00;56.40
31038;DHT22;17702;47.590;7.666;2022-08-14T06:00:47;20.00;55.20
31038;DHT22;17702;47.590;7.666;2022-08-14T06:03:21;20.10;54.60
31038;DHT22;17702;47.590;7.666;2022-08-14T06:05:50;20.20;54.80
31038;DHT22;17702;47.590;7.666;2022-08-14T06:08:27;20.30;55.00
31038;DHT22;17702;47.590;7.666;2022-08-14T06:10:57;20.40;54.90
31038;DHT22;17702;47.590;7.666;2022-08-14T06:13:28;20.40;54.90
31038;DHT22;17702;47.590;7.666;2022-08-14T06:15:54;20.50;53.50
31038;DHT22;17702;47.590;7.666;2022-08-14T06:18:19;20.60;53.70
31038;DHT22;17702;47.590;7.666;2022-08-14T06:20:45;20.70;53.70
31038;DHT22;17702;47.590;7.666;2022-08-14T06:23:10;20.80;53.50
31038;DHT22;17702;47.590;7.666;2022-08-14T06:25:36;20.90;52.90
31038;DHT22;17702;47.590;7.666;2022-08-14T06:28:02;21.00;53.90
31038;DHT22;17702;47.590;7.666;2022-08-14T06:30:31;21.10;52.70
31038;DHT22;17702;47.590;7.666;2022-08-14T06:32:57;21.20;51.40
31038;DHT22;17702;47.590;7.666;2022-08-14T06:35:23;21.40;50.40
31038;DHT22;17702;47.590;7.666;2022-08-14T06:37:54;21.50;51.10
31038;DHT22;17702;47.590;7.666;2022-08-14T06:40:33;21.60;51.80
31038;DHT22;17702;47.590;7.666;2022-08-14T06:43:07;21.80;51.10
31038;DHT22;17702;47.590;7.666;2022-08-14T06:45:38;21.90;50.70
31038;DHT22;17702;47.590;7.666;2022-08-14T06:48:16;22.00;49.90
31038;DHT22;17702;47.590;7.666;2022-08-14T06:50:43;22.20;49.70
31038;DHT22;17702;47.590;7.666;2022-08-14T06:53:09;22.30;49.00
31038;DHT22;17702;47.590;7.666;2022-08-14T06:55:36;22.40;48.80
31038;DHT22;17702;47.590;7.666;2022-08-14T06:58:02;22.50;49.00
31038;DHT22;17702;47.590;7.666;2022-08-14T07:00:28;22.60;48.90
31038;DHT22;17702;47.590;7.666;2022-08-14T07:02:54;22.70;48.00
31038;DHT22;17702;47.590;7.666;2022-08-14T07:05:39;22.90;48.20
31038;DHT22;17702;47.590;7.666;2022-08-14T07:08:20;23.10;48.40
31038;DHT22;17702;47.590;7.666;2022-08-14T07:10:52;23.20;47.00
31038;DHT22;17702;47.590;7.666;2022-08-14T07:13:19;23.40;47.50
31038;DHT22;17702;47.590;7.666;2022-08-14T07:15:46;23.40;46.80
31038;DHT22;17702;47.590;7.666;2022-08-14T07:18:27;23.40;47.50
31038;DHT22;17702;47.590;7.666;2022-08-14T07:20:54;23.40;46.30
31038;DHT22;17702;47.590;7.666;2022-08-14T07:23:20;23.30;47.10
31038;DHT22;17702;47.590;7.666;2022-08-14T07:25:49;23.20;48.20
31038;DHT22;17702;47.590;7.666;2022-08-14T07:28:17;23.20;48.20
31038;DHT22;17702;47.590;7.666;2022-08-14T07:30:43;23.30;48.70
31038;DHT22;17702;47.590;7.666;2022-08-14T07:33:11;23.60;48.70
31038;DHT22;17702;47.590;7.666;2022-08-14T07:35:38;23.80;48.00
31038;DHT22;17702;47.590;7.666;2022-08-14T07:38:05;24.10;46.90
31038;DHT22;17702;47.590;7.666;2022-08-14T07:40:30;24.30;46.50
31038;DHT22;17702;47.590;7.666;2022-08-14T07:42:56;24.40;45.90
31038;DHT22;17702;47.590;7.666;2022-08-14T07:45:22;24.50;45.10
31038;DHT22;17702;47.590;7.666;2022-08-14T07:47:48;24.70;45.50
31038;DHT22;17702;47.590;7.666;2022-08-14T07:50:16;24.80;44.30
31038;DHT22;17702;47.590;7.666;2022-08-14T07:52:43;24.90;45.20
31038;DHT22;17702;47.590;7.666;2022-08-14T07:55:11;24.90;45.30
31038;DHT22;17702;47.590;7.666;2022-08-14T07:57:38;25.20;45.00
31038;DHT22;17702;47.590;7.666;2022-08-14T08:00:10;25.30;45.50
31038;DHT22;17702;47.590;7.666;2022-08-14T08:02:39;25.50;43.20
31038;DHT22;17702;47.590;7.666;2022-08-14T08:05:06;25.70;43.70
31038;DHT22;17702;47.590;7.666;2022-08-14T08:07:33;25.90;43.60
31038;DHT22;17702;47.590;7.666;2022-08-14T08:10:11;26.00;42.60
31038;DHT22;17702;47.590;7.666;2022-08-14T08:15:26;26.30;42.40
31038;DHT22;17702;47.590;7.666;2022-08-14T08:17:53;26.30;42.60
31038;DHT22;17702;47.590;7.666;2022-08-14T08:20:21;26.10;41.00
31038;DHT22;17702;47.590;7.666;2022-08-14T08:22:49;26.00;41.80
31038;DHT22;17702;47.590;7.666;2022-08-14T08:25:27;25.90;41.30
31038;DHT22;17702;47.590;7.666;2022-08-14T08:27:58;26.00;41.20
31038;DHT22;17702;47.590;7.666;2022-08-14T08:30:24;26.00;41.80
31038;DHT22;17702;47.590;7.666;2022-08-14T08:32:53;26.00;42.10
31038;DHT22;17702;47.590;7.666;2022-08-14T08:35:21;26.10;41.40
31038;DHT22;17702;47.590;7.666;2022-08-14T08:37:49;26.30;40.10
31038;DHT22;17702;47.590;7.666;2022-08-14T08:40:23;26.50;41.50
31038;DHT22;17702;47.590;7.666;2022-08-14T08:42:49;26.70;40.40
31038;DHT22;17702;47.590;7.666;2022-08-14T08:45:15;26.90;39.70
31038;DHT22;17702;47.590;7.666;2022-08-14T08:47:41;27.20;40.90
31038;DHT22;17702;47.590;7.666;2022-08-14T08:52:52;27.40;38.10
31038;DHT22;17702;47.590;7.666;2022-08-14T08:55:32;27.50;38.30
31038;DHT22;17702;47.590;7.666;2022-08-14T08:58:01;27.50;37.50
31038;DHT22;17702;47.590;7.666;2022-08-14T09:00:29;27.40;37.20
31038;DHT22;17702;47.590;7.666;2022-08-14T09:03:00;27.60;39.00
31038;DHT22;17702;47.590;7.666;2022-08-14T09:05:28;27.70;38.80
31038;DHT22;17702;47.590;7.666;2022-08-14T09:07:54;27.90;38.30
31038;DHT22;17702;47.590;7.666;2022-08-14T09:10:32;28.10;36.60
31038;DHT22;17702;47.590;7.666;2022-08-14T09:12:58;28.20;39.30
31038;DHT22;17702;47.590;7.666;2022-08-14T09:15:25;28.30;38.70
31038;DHT22;17702;47.590;7.666;2022-08-14T09:17:51;28.50;39.00
31038;DHT22;17702;47.590;7.666;2022-08-14T09:20:17;28.50;38.30
31038;DHT22;17702;47.590;7.666;2022-08-14T09:22:44;28.60;40.50
31038;DHT22;17702;47.590;7.666;2022-08-14T09:25:11;28.80;40.80
31038;DHT22;17702;47.590;7.666;2022-08-14T09:27:37;28.90;38.10
31038;DHT22;17702;47.590;7.666;2022-08-14T09:30:07;29.00;39.80
31038;DHT22;17702;47.590;7.666;2022-08-14T09:35:27;29.20;38.70
31038;DHT22;17702;47.590;7.666;2022-08-14T09:38:05;29.20;39.10
31038;DHT22;17702;47.590;7.666;2022-08-14T09:41:02;29.40;38.40
31038;DHT22;17702;47.590;7.666;2022-08-14T09:46:12;29.20;37.40
31038;DHT22;17702;47.590;7.666;2022-08-14T09:48:40;29.00;37.90
31038;DHT22;17702;47.590;7.666;2022-08-14T09:51:06;29.00;36.50
31038;DHT22;17702;47.590;7.666;2022-08-14T09:53:42;29.00;37.10
31038;DHT22;17702;47.590;7.666;2022-08-14T09:56:11;29.00;38.50
31038;DHT22;17702;47.590;7.666;2022-08-14T09:58:42;29.10;37.20
31038;DHT22;17702;47.590;7.666;2022-08-14T10:01:19;29.20;36.80
31038;DHT22;17702;47.590;7.666;2022-08-14T10:03:56;29.20;36.30
31038;DHT22;17702;47.590;7.666;2022-08-14T10:06:24;29.30;38.70
31038;DHT22;17702;47.590;7.666;2022-08-14T10:08:52;29.20;38.70
31038;DHT22;17702;47.590;7.666;2022-08-14T10:11:26;29.30;39.00
31038;DHT22;17702;47.590;7.666;2022-08-14T10:13:57;29.30;39.40
31038;DHT22;17702;47.590;7.666;2022-08-14T10:16:25;29.40;39.50
31038;DHT22;17702;47.590;7.666;2022-08-14T10:19:06;29.40;39.20
31038;DHT22;17702;47.590;7.666;2022-08-14T10:21:34;29.60;40.10
31038;DHT22;17702;47.590;7.666;2022-08-14T10:23:59;29.60;40.40
31038;DHT22;17702;47.590;7.666;2022-08-14T10:26:25;29.60;42.50
31038;DHT22;17702;47.590;7.666;2022-08-14T10:28:52;29.70;42.70
31038;DHT22;17702;47.590;7.666;2022-08-14T10:31:24;29.80;42.10
31038;DHT22;17702;47.590;7.666;2022-08-14T10:34:17;29.70;40.90
31038;DHT22;17702;47.590;7.666;2022-08-14T10:36:44;29.70;40.80
31038;DHT22;17702;47.590;7.666;2022-08-14T10:39:18;29.60;40.80
31038;DHT22;17702;47.590;7.666;2022-08-14T10:41:44;29.50;41.30
31038;DHT22;17702;47.590;7.666;2022-08-14T10:44:20;29.50;41.70
31038;DHT22;17702;47.590;7.666;2022-08-14T10:46:51;29.50;41.70
31038;DHT22;17702;47.590;7.666;2022-08-14T10:49:23;29.50;41.30
31038;DHT22;17702;47.590;7.666;2022-08-14T10:52:00;29.60;41.60
31038;DHT22;17702;47.590;7.666;2022-08-14T10:54:33;29.60;41.50
31038;DHT22;17702;47.590;7.666;2022-08-14T10:57:22;29.60;41.80
31038;DHT22;17702;47.590;7.666;2022-08-14T11:00:13;29.60;42.00
31038;DHT22;17702;47.590;7.666;2022-08-14T11:02:40;29.50;41.20
31038;DHT22;17702;47.590;7.666;2022-08-14T11:05:07;29.40;42.50
31038;DHT22;17702;47.590;7.666;2022-08-14T11:07:41;29.40;42.60
31038;DHT22;17702;47.590;7.666;2022-08-14T11:10:12;29.30;42.70
31038;DHT22;17702;47.590;7.666;2022-08-14T11:15:14;29.30;45.30
31038;DHT22;17702;47.590;7.666;2022-08-14T11:17:41;29.30;44.10
31038;DHT22;17702;47.590;7.666;2022-08-14T11:20:08;29.20;43.70
31038;DHT22;17702;47.590;7.666;2022-08-14T11:22:37;29.10;44.80
31038;DHT22;17702;47.590;7.666;2022-08-14T11:25:06;29.10;45.10
31038;DHT22;17702;47.590;7.666;2022-08-14T11:27:33;29.00;46.00
31038;DHT22;17702;47.590;7.666;2022-08-14T11:30:05;29.00;45.90
31038;DHT22;17702;47.590;7.666;2022-08-14T11:32:32;29.00;46.20
31038;DHT22;17702;47.590;7.666;2022-08-14T11:34:59;29.10;45.30
31038;DHT22;17702;47.590;7.666;2022-08-14T11:37:27;29.10;46.30
31038;DHT22;17702;47.590;7.666;2022-08-14T11:39:54;29.10;46.00
31038;DHT22;17702;47.590;7.666;2022-08-14T11:42:22;29.10;45.50
31038;DHT22;17702;47.590;7.666;2022-08-14T11:44:48;29.00;45.10
31038;DHT22;17702;47.590;7.666;2022-08-14T11:47:15;28.90;45.30
31038;DHT22;17702;47.590;7.666;2022-08-14T11:49:45;28.80;44.80
31038;DHT22;17702;47.590;7.666;2022-08-14T11:52:12;28.70;44.80
31038;DHT22;17702;47.590;7.666;2022-08-14T11:54:38;28.60;45.60
31038;DHT22;17702;47.590;7.666;2022-08-14T11:57:04;28.60;46.20
31038;DHT22;17702;47.590;7.666;2022-08-14T11:59:30;28.70;47.00
31038;DHT22;17702;47.590;7.666;2022-08-14T12:02:08;28.70;45.80
31038;DHT22;17702;47.590;7.666;2022-08-14T12:04:34;28.70;45.20
31038;DHT22;17702;47.590;7.666;2022-08-14T12:06:59;28.60;45.10
31038;DHT22;17702;47.590;7.666;2022-08-14T12:09:30;28.60;45.40
31038;DHT22;17702;47.590;7.666;2022-08-14T12:11:56;28.60;45.50
31038;DHT22;17702;47.590;7.666;2022-08-14T12:14:22;28.60;46.10
31038;DHT22;17702;47.590;7.666;2022-08-14T12:17:03;28.50;43.60
31038;DHT22;17702;47.590;7.666;2022-08-14T12:19:52;28.50;44.70
31038;DHT22;17702;47.590;7.666;2022-08-14T12:22:36;28.40;43.30
31038;DHT22;17702;47.590;7.666;2022-08-14T12:25:04;28.40;44.40
31038;DHT22;17702;47.590;7.666;2022-08-14T12:27:50;28.40;44.10
31038;DHT22;17702;47.590;7.666;2022-08-14T12:32:54;28.50;39.00
31038;DHT22;17702;47.590;7.666;2022-08-14T12:35:21;28.50;37.40
31038;DHT22;17702;47.590;7.666;2022-08-14T12:37:49;28.40;38.60
31038;DHT22;17702;47.590;7.666;2022-08-14T12:40:16;28.40;36.60
31038;DHT22;17702;47.590;7.666;2022-08-14T12:42:42;28.30;37.00
31038;DHT22;17702;47.590;7.666;2022-08-14T12:45:10;28.30;38.00
31038;DHT22;17702;47.590;7.666;2022-08-14T12:47:41;28.30;37.00
31038;DHT22;17702;47.590;7.666;2022-08-14T12:50:09;28.20;37.50
31038;DHT22;17702;47.590;7.666;2022-08-14T12:52:40;28.10;35.70
31038;DHT22;17702;47.590;7.666;2022-08-14T12:55:13;28.00;35.80
31038;DHT22;17702;47.590;7.666;2022-08-14T12:57:41;27.90;36.70
31038;DHT22;17702;47.590;7.666;2022-08-14T13:00:12;27.80;37.40
31038;DHT22;17702;47.590;7.666;2022-08-14T13:02:42;27.70;37.60
31038;DHT22;17702;47.590;7.666;2022-08-14T13:05:09;27.70;37.90
31038;DHT22;17702;47.590;7.666;2022-08-14T13:07:37;27.70;38.90
31038;DHT22;17702;47.590;7.666;2022-08-14T13:10:09;27.70;39.10
31038;DHT22;17702;47.590;7.666;2022-08-14T13:12:37;27.70;39.00
31038;DHT22;17702;47.590;7.666;2022-08-14T13:15:09;27.60;38.90
31038;DHT22;17702;47.590;7.666;2022-08-14T13:20:07;27.60;39.60
31038;DHT22;17702;47.590;7.666;2022-08-14T13:22:36;27.50;40.30
31038;DHT22;17702;47.590;7.666;2022-08-14T13:25:03;27.50;42.10
31038;DHT22;17702;47.590;7.666;2022-08-14T13:27:31;27.50;40.80
31038;DHT22;17702;47.590;7.666;2022-08-14T13:29:58;27.60;41.60
31038;DHT22;17702;47.590;7.666;2022-08-14T13:32:26;27.50;42.10
31038;DHT22;17702;47.590;7.666;2022-08-14T13:34:53;27.40;43.00
31038;DHT22;17702;47.590;7.666;2022-08-14T13:37:19;27.40;41.80
31038;DHT22;17702;47.590;7.666;2022-08-14T13:39:52;27.40;42.40
31038;DHT22;17702;47.590;7.666;2022-08-14T13:42:19;27.40;42.90
31038;DHT22;17702;47.590;7.666;2022-08-14T13:44:49;27.40;42.70
31038;DHT22;17702;47.590;7.666;2022-08-14T13:47:16;27.40;43.30
31038;DHT22;17702;47.590;7.666;2022-08-14T13:49:49;27.40;43.50
31038;DHT22;17702;47.590;7.666;2022-08-14T13:52:19;27.40;42.70
31038;DHT22;17702;47.590;7.666;2022-08-14T13:54:47;27.40;43.10
31038;DHT22;17702;47.590;7.666;2022-08-14T13:57:14;27.40;44.60
31038;DHT22;17702;47.590;7.666;2022-08-14T13:59:49;27.40;42.90
31038;DHT22;17702;47.590;7.666;2022-08-14T14:02:18;27.30;43.70
31038;DHT22;17702;47.590;7.666;2022-08-14T14:04:46;27.30;44.10
31038;DHT22;17702;47.590;7.666;2022-08-14T14:07:15;27.30;43.80
31038;DHT22;17702;47.590;7.666;2022-08-14T14:09:43;27.30;43.70
31038;DHT22;17702;47.590;7.666;2022-08-14T14:12:12;27.30;43.10
31038;DHT22;17702;47.590;7.666;2022-08-14T14:14:39;27.30;43.30
31038;DHT22;17702;47.590;7.666;2022-08-14T14:17:07;27.20;44.00
31038;DHT22;17702;47.590;7.666;2022-08-14T14:19:33;27.10;44.80
31038;DHT22;17702;47.590;7.666;2022-08-14T14:22:03;27.10;45.10
31038;DHT22;17702;47.590;7.666;2022-08-14T14:24:31;27.00;44.80
31038;DHT22;17702;47.590;7.666;2022-08-14T14:27:02;27.10;44.50
31038;DHT22;17702;47.590;7.666;2022-08-14T14:29:32;27.00;44.60
31038;DHT22;17702;47.590;7.666;2022-08-14T14:32:00;27.00;44.40
31038;DHT22;17702;47.590;7.666;2022-08-14T14:34:28;27.00;45.80
31038;DHT22;17702;47.590;7.666;2022-08-14T14:36:55;27.00;46.60
31038;DHT22;17702;47.590;7.666;2022-08-14T14:39:24;26.90;45.50
31038;DHT22;17702;47.590;7.666;2022-08-14T14:41:55;26.90;45.40
31038;DHT22;17702;47.590;7.666;2022-08-14T14:44:23;26.80;46.10
31038;DHT22;17702;47.590;7.666;2022-08-14T14:46:50;26.80;45.50
31038;DHT22;17702;47.590;7.666;2022-08-14T14:49:17;26.80;46.20
31038;DHT22;17702;47.590;7.666;2022-08-14T14:51:44;26.70;45.30
31038;DHT22;17702;47.590;7.666;2022-08-14T14:54:11;26.80;45.90
31038;DHT22;17702;47.590;7.666;2022-08-14T14:56:39;26.70;46.10
31038;DHT22;17702;47.590;7.666;2022-08-14T14:59:05;26.70;47.10
31038;DHT22;17702;47.590;7.666;2022-08-14T15:01:34;26.60;46.60
31038;DHT22;17702;47.590;7.666;2022-08-14T15:04:00;26.60;46.50
31038;DHT22;17702;47.590;7.666;2022-08-14T15:06:29;26.60;47.80
31038;DHT22;17702;47.590;7.666;2022-08-14T15:08:57;26.50;46.40
31038;DHT22;17702;47.590;7.666;2022-08-14T15:11:22;26.60;46.70
31038;DHT22;17702;47.590;7.666;2022-08-14T15:13:48;26.50;47.00
31038;DHT22;17702;47.590;7.666;2022-08-14T15:16:13;26.50;47.00
31038;DHT22;17702;47.590;7.666;2022-08-14T15:18:40;26.50;47.00
31038;DHT22;17702;47.590;7.666;2022-08-14T15:21:06;26.50;46.80
31038;DHT22;17702;47.590;7.666;2022-08-14T15:23:32;26.50;46.80
31038;DHT22;17702;47.590;7.666;2022-08-14T15:25:58;26.40;46.80
31038;DHT22;17702;47.590;7.666;2022-08-14T15:28:25;26.40;47.00
31038;DHT22;17702;47.590;7.666;2022-08-14T15:30:52;26.40;47.00
31038;DHT22;17702;47.590;7.666;2022-08-14T15:33:18;26.30;47.90
31038;DHT22;17702;47.590;7.666;2022-08-14T15:36:03;26.30;47.40
31038;DHT22;17702;47.590;7.666;2022-08-14T15:38:29;26.20;49.70
31038;DHT22;17702;47.590;7.666;2022-08-14T15:40:56;26.20;49.80
31038;DHT22;17702;47.590;7.666;2022-08-14T15:43:24;26.10;50.20
31038;DHT22;17702;47.590;7.666;2022-08-14T15:45:50;26.10;48.90
31038;DHT22;17702;47.590;7.666;2022-08-14T15:48:16;26.10;48.90
31038;DHT22;17702;47.590;7.666;2022-08-14T15:50:42;26.00;50.40
31038;DHT22;17702;47.590;7.666;2022-08-14T15:53:09;26.00;51.10
31038;DHT22;17702;47.590;7.666;2022-08-14T15:55:35;26.00;49.30
31038;DHT22;17702;47.590;7.666;2022-08-14T15:58:13;26.00;49.40
31038;DHT22;17702;47.590;7.666;2022-08-14T16:00:39;25.90;50.60